sensor_id;sensor_type;location;lat;lon;timestamp;temperature;humidity
4081;DHT22;2055;50.074;8.436;2022-10-30T00:01:54;13.30;99.90
4081;DHT22;2055;50.074;8.436;2022-10-30T00:04:19;13.20;99.90
4081;DHT22;2055;50.074;8.436;2022-10-30T00:06:45;13.10;99.90
4081;DHT22;2055;50.074;8.436;2022-10-30T00:09:10;13.00;99.90
4081;DHT22;2055;50.074;8.436;2022-10-30T00:11:36;12.90;99.90
4081;DHT22;2055;50.074;8.436;2022-10-30T00:14:01;12.90;99.90
4081;DHT22;2055;50.074;8.436;2022-10-30T00:16:27;13.10;99.90
4081;DHT22;2055;50.074;8.436;2022-10-30T00:18:53;12.90;99.90
4081;DHT22;2055;50.074;8.436;2022-10-30T00:21:18;12.90;99.90
4081;DHT22;2055;50.074;8.436;2022-10-30T00:23:46;13.00;99.90
4081;DHT22;2055;50.074;8.436;2022-10-30T00:26:12;12.90;99.90
4081;DHT22;2055;50.074;8.436;2022-10-30T00:28:38;12.80;99.90
4081;DHT22;2055;50.074;8.436;2022-10-30T00:31:04;12.70;99.90
4081;DHT22;2055;50.074;8.436;2022-10-30T00:33:30;12.70;99.90
4081;DHT22;2055;50.074;8.436;2022-10-30T00:35:55;12.70;99.90
4081;DHT22;2055;50.074;8.436;2022-10-30T00:38:21;12.60;99.90
4081;DHT22;2055;50.074;8.436;2022-10-30T00:40:46;12.60;99.90
4081;DHT22;2055;50.074;8.436;2022-10-30T00:45:55;12.50;99.90
4081;DHT22;2055;50.074;8.436;2022-10-30T00:48:24;12.50;99.90
4081;DHT22;2055;50.074;8.436;2022-10-30T00:50:51;12.50;99.90
4081;DHT22;2055;50.074;8.436;2022-10-30T00:53:19;12.50;99.90
4081;DHT22;2055;50.074;8.436;2022-10-30T00:55:49;12.60;99.90
4081;DHT22;2055;50.074;8.436;2022-10-30T00:58:19;12.90;99.90
4081;DHT22;2055;50.074;8.436;2022-10-30T01:00:49;12.90;99.90
4081;DHT22;2055;50.074;8.436;2022-10-30T01:03:17;12.90;99.90
4081;DHT22;2055;50.074;8.436;2022-10-30T01:05:45;12.60;99.90
4081;DHT22;2055;50.074;8.436;2022-10-30T01:08:12;12.90;99.90
4081;DHT22;2055;50.074;8.436;2022-10-30T01:10:38;13.00;99.90
4081;DHT22;2055;50.074;8.436;2022-10-30T01:13:04;13.00;99.90
4081;DHT22;2055;50.074;8.436;2022-10-30T01:15:32;12.90;99.90
4081;DHT22;2055;50.074;8.436;2022-10-30T01:18:25;12.90;99.90
4081;DHT22;2055;50.074;8.436;2022-10-30T01:21:13;12.80;99.90
4081;DHT22;2055;50.074;8.436;2022-10-30T01:23:52;12.90;99.90
4081;DHT22;2055;50.074;8.436;2022-10-30T01:26:37;12.80;99.90
4081;DHT22;2055;50.074;8.436;2022-10-30T01:29:27;12.70;99.90
4081;DHT22;2055;50.074;8.436;2022-10-30T01:32:37;12.60;99.90
4081;DHT22;2055;50.074;8.436;2022-10-30T01:35:06;12.60;99.90
4081;DHT22;2055;50.074;8.436;2022-10-30T01:37:45;12.60;99.90
4081;DHT22;2055;50.074;8.436;2022-10-30T01:40:17;12.60;99.90
4081;DHT22;2055;50.074;8.436;2022-10-30T01:51:30;12.90;99.90
4081;DHT22;2055;50.074;8.436;2022-10-30T01:57:15;12.80;99.90
4081;DHT22;2055;50.074;8.436;2022-10-30T01:59:54;12.80;99.90
4081;DHT22;2055;50.074;8.436;2022-10-30T02:02:21;12.80;99.90
4081;DHT22;2055;50.074;8.436;2022-10-30T02:04:48;12.70;99.90
4081;DHT22;2055;50.074;8.436;2022-10-30T02:07:14;12.60;99.90
4081;DHT22;2055;50.074;8.436;2022-10-30T02:09:39;12.60;99.90
4081;DHT22;2055;50.074;8.436;2022-10-30T02:12:06;12.60;99.90
4081;DHT22;2055;50.074;8.436;2022-10-30T02:14:42;12.60;99.90
4081;DHT22;2055;50.074;8.436;2022-10-30T02:17:08;12.60;99.90
4081;DHT22;2055;50.074;8.436;2022-10-30T02:19:36;12.60;99.90
4081;DHT22;2055;50.074;8.436;2022-10-30T02:22:02;12.70;99.90
4081;DHT22;2055;50.074;8.436;2022-10-30T02:24:28;12.70;99.90
4081;DHT22;2055;50.074;8.436;2022-10-30T02:26:54;12.70;99.90
4081;DHT22;2055;50.074;8.436;2022-10-30T02:29:19;12.80;99.90
4081;DHT22;2055;50.074;8.436;2022-10-30T02:31:46;12.70;99.90
4081;DHT22;2055;50.074;8.436;2022-10-30T02:34:12;12.70;99.90
4081;DHT22;2055;50.074;8.436;2022-10-30T02:36:37;12.70;99.90
4081;DHT22;2055;50.074;8.436;2022-10-30T02:39:03;12.80;99.90
4081;DHT22;2055;50.074;8.436;2022-10-30T02:41:29;12.80;99.90
4081;DHT22;2055;50.074;8.436;2022-10-30T02:43:54;12.80;99.90
4081;DHT22;2055;50.074;8.436;2022-10-30T02:46:20;12.80;99.90
4081;DHT22;2055;50.074;8.436;2022-10-30T02:48:46;13.00;99.90
4081;DHT22;2055;50.074;8.436;2022-10-30T02:51:12;13.00;99.90
4081;DHT22;2055;50.074;8.436;2022-10-30T02:53:37;13.00;99.90
4081;DHT22;2055;50.074;8.436;2022-10-30T02:56:08;13.20;99.90
4081;DHT22;2055;50.074;8.436;2022-10-30T02:58:34;13.20;99.90
4081;DHT22;2055;50.074;8.436;2022-10-30T03:01:13;13.30;99.90
4081;DHT22;2055;50.074;8.436;2022-10-30T03:03:40;13.40;99.90
4081;DHT22;2055;50.074;8.436;2022-10-30T03:06:09;13.50;99.90
4081;DHT22;2055;50.074;8.436;2022-10-30T03:08:35;13.70;99.90
4081;DHT22;2055;50.074;8.436;2022-10-30T03:11:12;13.70;99.90
4081;DHT22;2055;50.074;8.436;2022-10-30T03:13:39;13.70;99.90
4081;DHT22;2055;50.074;8.436;2022-10-30T03:16:17;13.60;99.90
4081;DHT22;2055;50.074;8.436;2022-10-30T03:18:43;13.60;99.90
4081;DHT22;2055;50.074;8.436;2022-10-30T03:21:11;13.50;99.90
4081;DHT22;2055;50.074;8.436;2022-10-30T03:23:37;13.50;99.90
4081;DHT22;2055;50.074;8.436;2022-10-30T03:26:03;13.40;99.90
4081;DHT22;2055;50.074;8.436;2022-10-30T03:28:30;13.40;99.90
4081;DHT22;2055;50.074;8.436;2022-10-30T03:31:16;13.40;99.90
4081;DHT22;2055;50.074;8.436;2022-10-30T03:33:42;13.20;99.90
4081;DHT22;2055;50.074;8.436;2022-10-30T03:36:09;13.10;99.90
4081;DHT22;2055;50.074;8.436;2022-10-30T03:38:36;13.00;99.90
4081;DHT22;2055;50.074;8.436;2022-10-30T03:41:02;12.90;99.90
4081;DHT22;2055;50.074;8.436;2022-10-30T03:43:28;13.00;99.90
4081;DHT22;2055;50.074;8.436;2022-10-30T03:45:54;12.90;99.90
4081;DHT22;2055;50.074;8.436;2022-10-30T03:48:25;12.90;99.90
4081;DHT22;2055;50.074;8.436;2022-10-30T03:50:55;12.80;99.90
4081;DHT22;2055;50.074;8.436;2022-10-30T03:53:21;12.90;99.90
4081;DHT22;2055;50.074;8.436;2022-10-30T03:55:48;13.00;99.90
4081;DHT22;2055;50.074;8.436;2022-10-30T03:58:14;12.80;99.90
4081;DHT22;2055;50.074;8.436;2022-10-30T04:00:40;12.80;99.90
4081;DHT22;2055;50.074;8.436;2022-10-30T04:03:07;12.70;99.90
4081;DHT22;2055;50.074;8.436;2022-10-30T04:05:34;12.60;99.90
4081;DHT22;2055;50.074;8.436;2022-10-30T04:08:03;12.50;99.90
4081;DHT22;2055;50.074;8.436;2022-10-30T04:10:29;12.50;99.90
4081;DHT22;2055;50.074;8.436;2022-10-30T04:13:04;12.40;99.90
4081;DHT22;2055;50.074;8.436;2022-10-30T04:15:30;12.30;99.90
4081;DHT22;2055;50.074;8.436;2022-10-30T04:17:56;12.30;99.90
4081;DHT22;2055;50.074;8.436;2022-10-30T04:20:22;12.30;99.90
4081;DHT22;2055;50.074;8.436;2022-10-30T04:22:48;12.30;99.90
4081;DHT22;2055;50.074;8.436;2022-10-30T04:25:19;12.20;99.90
4081;DHT22;2055;50.074;8.436;2022-10-30T04:27:44;12.30;99.90
4081;DHT22;2055;50.074;8.436;2022-10-30T04:30:11;12.20;99.90
4081;DHT22;2055;50.074;8.436;2022-10-30T04:32:51;12.20;99.90
4081;DHT22;2055;50.074;8.436;2022-10-30T04:35:19;12.10;99.90
4081;DHT22;2055;50.074;8.436;2022-10-30T04:37:55;12.10;99.90
4081;DHT22;2055;50.074;8.436;2022-10-30T04:40:27;12.00;99.90
4081;DHT22;2055;50.074;8.436;2022-10-30T04:42:53;12.00;99.90
4081;DHT22;2055;50.074;8.436;2022-10-30T04:45:18;11.90;99.90
4081;DHT22;2055;50.074;8.436;2022-10-30T04:47:44;11.90;99.90
4081;DHT22;2055;50.074;8.436;2022-10-30T04:50:11;12.00;99.90
4081;DHT22;2055;50.074;8.436;2022-10-30T04:52:36;12.00;99.90
4081;DHT22;2055;50.074;8.436;2022-10-30T04:55:02;12.10;99.90
4081;DHT22;2055;50.074;8.436;2022-10-30T04:57:28;12.10;99.90
4081;DHT22;2055;50.074;8.436;2022-10-30T04:59:55;12.10;99.90
4081;DHT22;2055;50.074;8.436;2022-10-30T05:02:21;12.10;99.90
4081;DHT22;2055;50.074;8.436;2022-10-30T05:04:46;12.10;99.90
4081;DHT22;2055;50.074;8.436;2022-10-30T05:07:12;12.10;99.90
4081;DHT22;2055;50.074;8.436;2022-10-30T05:09:38;12.00;99.90
4081;DHT22;2055;50.074;8.436;2022-10-30T05:12:04;12.00;99.90
4081;DHT22;2055;50.074;8.436;2022-10-30T05:14:30;11.80;99.90
4081;DHT22;2055;50.074;8.436;2022-10-30T05:16:56;11.70;99.90
4081;DHT22;2055;50.074;8.436;2022-10-30T05:19:22;11.70;99.90
4081;DHT22;2055;50.074;8.436;2022-10-30T05:21:47;11.60;99.90
4081;DHT22;2055;50.074;8.436;2022-10-30T05:24:13;11.60;99.90
4081;DHT22;2055;50.074;8.436;2022-10-30T05:26:38;11.60;99.90
4081;DHT22;2055;50.074;8.436;2022-10-30T05:29:04;11.60;99.90
4081;DHT22;2055;50.074;8.436;2022-10-30T05:31:29;11.60;99.90
4081;DHT22;2055;50.074;8.436;2022-10-30T05:33:55;11.40;99.90
4081;DHT22;2055;50.074;8.436;2022-10-30T05:36:20;11.30;99.90
4081;DHT22;2055;50.074;8.436;2022-10-30T05:38:46;11.30;99.90
4081;DHT22;2055;50.074;8.436;2022-10-30T05:41:11;11.30;99.90
4081;DHT22;2055;50.074;8.436;2022-10-30T05:43:37;11.40;99.90
4081;DHT22;2055;50.074;8.436;2022-10-30T05:46:03;11.50;99.90
4081;DHT22;2055;50.074;8.436;2022-10-30T05:48:28;11.40;99.90
4081;DHT22;2055;50.074;8.436;2022-10-30T05:50:55;11.20;99.90
4081;DHT22;2055;50.074;8.436;2022-10-30T05:53:21;11.10;99.90
4081;DHT22;2055;50.074;8.436;2022-10-30T05:55:47;11.20;99.90
4081;DHT22;2055;50.074;8.436;2022-10-30T05:58:13;11.20;99.90
4081;DHT22;2055;50.074;8.436;2022-10-30T06:00:38;11.20;99.90
4081;DHT22;2055;50.074;8.436;2022-10-30T06:03:06;11.20;99.90
4081;DHT22;2055;50.074;8.436;2022-10-30T06:05:35;11.30;99.90
4081;DHT22;2055;50.074;8.436;2022-10-30T06:08:02;11.30;99.90
4081;DHT22;2055;50.074;8.436;2022-10-30T06:10:28;11.30;99.90
4081;DHT22;2055;50.074;8.436;2022-10-30T06:12:59;11.20;99.90
4081;DHT22;2055;50.074;8.436;2022-10-30T06:15:25;11.40;99.90
4081;DHT22;2055;50.074;8.436;2022-10-30T06:17:51;11.10;99.90
4081;DHT22;2055;50.074;8.436;2022-10-30T06:20:18;11.20;99.90
4081;DHT22;2055;50.074;8.436;2022-10-30T06:22:58;11.20;99.90
4081;DHT22;2055;50.074;8.436;2022-10-30T06:25:24;11.10;99.90
4081;DHT22;2055;50.074;8.436;2022-10-30T06:27:51;11.00;99.90
4081;DHT22;2055;50.074;8.436;2022-10-30T06:30:17;11.00;99.90
4081;DHT22;2055;50.074;8.436;2022-10-30T06:32:43;11.30;99.90
4081;DHT22;2055;50.074;8.436;2022-10-30T06:35:08;11.60;99.90
4081;DHT22;2055;50.074;8.436;2022-10-30T06:37:34;11.60;99.90
4081;DHT22;2055;50.074;8.436;2022-10-30T06:40:00;11.50;99.90
4081;DHT22;2055;50.074;8.436;2022-10-30T06:42:25;11.30;99.90
4081;DHT22;2055;50.074;8.436;2022-10-30T06:44:51;11.20;99.90
4081;DHT22;2055;50.074;8.436;2022-10-30T06:47:17;11.20;99.90
4081;DHT22;2055;50.074;8.436;2022-10-30T06:49:42;11.30;99.90
4081;DHT22;2055;50.074;8.436;2022-10-30T06:52:08;11.40;99.90
4081;DHT22;2055;50.074;8.436;2022-10-30T06:54:34;11.50;99.90
4081;DHT22;2055;50.074;8.436;2022-10-30T06:56:59;11.40;99.90
4081;DHT22;2055;50.074;8.436;2022-10-30T06:59:25;11.40;99.90
4081;DHT22;2055;50.074;8.436;2022-10-30T07:01:50;11.40;99.90
4081;DHT22;2055;50.074;8.436;2022-10-30T07:04:16;11.50;99.90
4081;DHT22;2055;50.074;8.436;2022-10-30T07:06:42;11.90;99.90
4081;DHT22;2055;50.074;8.436;2022-10-30T07:09:07;12.20;99.90
4081;DHT22;2055;50.074;8.436;2022-10-30T07:11:33;12.10;99.90
4081;DHT22;2055;50.074;8.436;2022-10-30T07:13:58;12.20;99.90
4081;DHT22;2055;50.074;8.436;2022-10-30T07:16:24;12.20;99.90
4081;DHT22;2055;50.074;8.436;2022-10-30T07:18:50;12.30;99.90
4081;DHT22;2055;50.074;8.436;2022-10-30T07:21:15;12.40;99.90
4081;DHT22;2055;50.074;8.436;2022-10-30T07:23:41;12.60;99.90
4081;DHT22;2055;50.074;8.436;2022-10-30T07:26:06;12.70;99.90
4081;DHT22;2055;50.074;8.436;2022-10-30T07:28:32;12.80;99.90
4081;DHT22;2055;50.074;8.436;2022-10-30T07:30:58;13.00;99.90
4081;DHT22;2055;50.074;8.436;2022-10-30T07:33:23;13.10;99.90
4081;DHT22;2055;50.074;8.436;2022-10-30T07:35:49;13.30;99.90
4081;DHT22;2055;50.074;8.436;2022-10-30T07:38:14;13.40;99.90
4081;DHT22;2055;50.074;8.436;2022-10-30T07:40:42;13.50;99.90
4081;DHT22;2055;50.074;8.436;2022-10-30T07:43:08;13.70;99.90
4081;DHT22;2055;50.074;8.436;2022-10-30T07:45:37;13.80;99.90
4081;DHT22;2055;50.074;8.436;2022-10-30T07:48:03;13.90;99.90
4081;DHT22;2055;50.074;8.436;2022-10-30T07:50:29;14.00;99.90
4081;DHT22;2055;50.074;8.436;2022-10-30T07:52:55;14.10;99.90
4081;DHT22;2055;50.074;8.436;2022-10-30T07:55:20;14.20;99.90
4081;DHT22;2055;50.074;8.436;2022-10-30T07:57:46;14.30;99.90
4081;DHT22;2055;50.074;8.436;2022-10-30T08:00:13;14.40;99.90
4081;DHT22;2055;50.074;8.436;2022-10-30T08:02:39;14.40;99.90
4081;DHT22;2055;50.074;8.436;2022-10-30T08:05:05;14.40;99.90
4081;DHT22;2055;50.074;8.436;2022-10-30T08:07:35;14.40;99.90
4081;DHT22;2055;50.074;8.436;2022-10-30T08:10:01;14.40;99.90
4081;DHT22;2055;50.074;8.436;2022-10-30T08:12:27;14.50;99.90
4081;DHT22;2055;50.074;8.436;2022-10-30T08:14:53;14.50;99.90
4081;DHT22;2055;50.074;8.436;2022-10-30T08:17:19;14.50;99.90
4081;DHT22;2055;50.074;8.436;2022-10-30T08:19:45;14.60;99.90
4081;DHT22;2055;50.074;8.436;2022-10-30T08:22:11;14.60;99.90
4081;DHT22;2055;50.074;8.436;2022-10-30T08:24:36;14.70;99.90
4081;DHT22;2055;50.074;8.436;2022-10-30T08:27:02;14.70;99.90
4081;DHT22;2055;50.074;8.436;2022-10-30T08:29:28;14.70;99.90
4081;DHT22;2055;50.074;8.436;2022-10-30T08:31:54;14.80;99.90
4081;DHT22;2055;50.074;8.436;2022-10-30T08:34:20;14.90;99.90
4081;DHT22;2055;50.074;8.436;2022-10-30T08:36:50;15.00;99.90
4081;DHT22;2055;50.074;8.436;2022-10-30T08:39:19;15.10;99.90
4081;DHT22;2055;50.074;8.436;2022-10-30T08:41:45;15.10;99.90
4081;DHT22;2055;50.074;8.436;2022-10-30T08:44:10;15.10;99.90
4081;DHT22;2055;50.074;8.436;2022-10-30T08:46:36;15.20;99.90
4081;DHT22;2055;50.074;8.436;2022-10-30T08:49:01;15.40;99.90
4081;DHT22;2055;50.074;8.436;2022-10-30T08:51:31;15.60;99.90
4081;DHT22;2055;50.074;8.436;2022-10-30T08:53:58;15.60;99.90
4081;DHT22;2055;50.074;8.436;2022-10-30T08:56:24;15.70;99.90
4081;DHT22;2055;50.074;8.436;2022-10-30T08:58:50;15.80;99.90
4081;DHT22;2055;50.074;8.436;2022-10-30T09:01:15;16.00;99.90
4081;DHT22;2055;50.074;8.436;2022-10-30T09:03:41;16.10;99.90
4081;DHT22;2055;50.074;8.436;2022-10-30T09:06:10;16.00;99.90
4081;DHT22;2055;50.074;8.436;2022-10-30T09:08:35;16.10;99.90
4081;DHT22;2055;50.074;8.436;2022-10-30T09:11:01;16.10;99.90
4081;DHT22;2055;50.074;8.436;2022-10-30T09:13:27;16.30;99.90
4081;DHT22;2055;50.074;8.436;2022-10-30T09:15:53;16.30;99.90
4081;DHT22;2055;50.074;8.436;2022-10-30T09:18:19;16.30;99.90
4081;DHT22;2055;50.074;8.436;2022-10-30T09:20:47;16.30;99.90
4081;DHT22;2055;50.074;8.436;2022-10-30T09:23:13;16.30;99.90
4081;DHT22;2055;50.074;8.436;2022-10-30T09:25:39;16.40;99.90
4081;DHT22;2055;50.074;8.436;2022-10-30T09:28:04;16.50;99.90
4081;DHT22;2055;50.074;8.436;2022-10-30T09:30:30;16.60;99.90
4081;DHT22;2055;50.074;8.436;2022-10-30T09:32:57;16.70;99.90
4081;DHT22;2055;50.074;8.436;2022-10-30T09:35:23;16.80;99.90
4081;DHT22;2055;50.074;8.436;2022-10-30T09:37:48;16.90;99.90
4081;DHT22;2055;50.074;8.436;2022-10-30T09:40:38;17.10;99.90
4081;DHT22;2055;50.074;8.436;2022-10-30T09:43:38;17.20;99.90
4081;DHT22;2055;50.074;8.436;2022-10-30T09:49:23;17.20;99.90
4081;DHT22;2055;50.074;8.436;2022-10-30T10:00:04;17.80;99.90
4081;DHT22;2055;50.074;8.436;2022-10-30T10:02:50;17.90;99.90
4081;DHT22;2055;50.074;8.436;2022-10-30T10:05:24;17.80;99.90
4081;DHT22;2055;50.074;8.436;2022-10-30T10:08:03;17.80;99.90
4081;DHT22;2055;50.074;8.436;2022-10-30T10:10:59;18.00;99.90
4081;DHT22;2055;50.074;8.436;2022-10-30T10:13:38;21.00;99.90
4081;DHT22;2055;50.074;8.436;2022-10-30T10:18:40;27.10;99.90
4081;DHT22;2055;50.074;8.436;2022-10-30T10:21:14;27.80;99.90
4081;DHT22;2055;50.074;8.436;2022-10-30T10:23:49;29.20;99.90
4081;DHT22;2055;50.074;8.436;2022-10-30T10:32:00;28.20;99.90
4081;DHT22;2055;50.074;8.436;2022-10-30T10:34:45;28.40;99.90
4081;DHT22;2055;50.074;8.436;2022-10-30T10:50:54;28.40;99.90
4081;DHT22;2055;50.074;8.436;2022-10-30T10:55:49;29.30;99.90
4081;DHT22;2055;50.074;8.436;2022-10-30T10:58:29;28.90;99.90
4081;DHT22;2055;50.074;8.436;2022-10-30T11:00:57;28.40;99.90
4081;DHT22;2055;50.074;8.436;2022-10-30T11:06:27;29.90;99.90
4081;DHT22;2055;50.074;8.436;2022-10-30T11:09:15;28.80;99.90
4081;DHT22;2055;50.074;8.436;2022-10-30T11:11:43;27.50;99.90
4081;DHT22;2055;50.074;8.436;2022-10-30T11:14:14;28.60;99.90
4081;DHT22;2055;50.074;8.436;2022-10-30T11:19:43;27.40;99.90
4081;DHT22;2055;50.074;8.436;2022-10-30T11:22:20;28.20;99.90
4081;DHT22;2055;50.074;8.436;2022-10-30T11:24:48;29.30;99.90
4081;DHT22;2055;50.074;8.436;2022-10-30T11:29:52;29.70;99.90
4081;DHT22;2055;50.074;8.436;2022-10-30T11:32:20;29.60;99.90
4081;DHT22;2055;50.074;8.436;2022-10-30T11:35:07;28.80;99.90
4081;DHT22;2055;50.074;8.436;2022-10-30T11:37:37;28.50;99.90
4081;DHT22;2055;50.074;8.436;2022-10-30T11:42:28;27.60;99.90
4081;DHT22;2055;50.074;8.436;2022-10-30T11:44:54;26.10;99.90
4081;DHT22;2055;50.074;8.436;2022-10-30T11:47:31;25.10;99.90
4081;DHT22;2055;50.074;8.436;2022-10-30T11:49:58;24.20;99.90
4081;DHT22;2055;50.074;8.436;2022-10-30T11:52:26;25.30;99.90
4081;DHT22;2055;50.074;8.436;2022-10-30T11:54:59;26.00;99.90
4081;DHT22;2055;50.074;8.436;2022-10-30T11:57:37;27.40;99.90
4081;DHT22;2055;50.074;8.436;2022-10-30T12:00:14;26.50;99.90
4081;DHT22;2055;50.074;8.436;2022-10-30T12:02:42;27.10;99.90
4081;DHT22;2055;50.074;8.436;2022-10-30T12:05:33;26.20;99.90
4081;DHT22;2055;50.074;8.436;2022-10-30T12:10:31;24.00;99.90
4081;DHT22;2055;50.074;8.436;2022-10-30T12:13:03;22.60;99.90
4081;DHT22;2055;50.074;8.436;2022-10-30T12:15:34;21.60;99.90
4081;DHT22;2055;50.074;8.436;2022-10-30T12:18:03;21.40;99.90
4081;DHT22;2055;50.074;8.436;2022-10-30T12:20:29;20.90;99.90
4081;DHT22;2055;50.074;8.436;2022-10-30T12:22:56;20.70;99.90
4081;DHT22;2055;50.074;8.436;2022-10-30T12:25:30;20.70;99.90
4081;DHT22;2055;50.074;8.436;2022-10-30T12:28:03;20.50;99.90
4081;DHT22;2055;50.074;8.436;2022-10-30T12:30:33;20.20;99.90
4081;DHT22;2055;50.074;8.436;2022-10-30T12:33:12;20.10;99.90
4081;DHT22;2055;50.074;8.436;2022-10-30T12:38:37;20.10;99.90
4081;DHT22;2055;50.074;8.436;2022-10-30T12:43:44;20.00;99.90
4081;DHT22;2055;50.074;8.436;2022-10-30T12:48:51;19.90;99.90
4081;DHT22;2055;50.074;8.436;2022-10-30T12:51:28;20.00;99.90
4081;DHT22;2055;50.074;8.436;2022-10-30T12:56:43;20.10;99.90
4081;DHT22;2055;50.074;8.436;2022-10-30T12:59:31;20.20;99.90
4081;DHT22;2055;50.074;8.436;2022-10-30T13:02:18;20.20;99.90
4081;DHT22;2055;50.074;8.436;2022-10-30T13:04:50;20.70;99.90
4081;DHT22;2055;50.074;8.436;2022-10-30T13:10:21;22.40;99.90
4081;DHT22;2055;50.074;8.436;2022-10-30T13:12:51;23.40;99.90
4081;DHT22;2055;50.074;8.436;2022-10-30T13:17:50;23.60;99.90
4081;DHT22;2055;50.074;8.436;2022-10-30T13:20:16;23.40;99.90
4081;DHT22;2055;50.074;8.436;2022-10-30T13:23:10;23.50;99.90
4081;DHT22;2055;50.074;8.436;2022-10-30T13:26:05;23.90;99.90
4081;DHT22;2055;50.074;8.436;2022-10-30T13:28:54;23.60;99.90
4081;DHT22;2055;50.074;8.436;2022-10-30T13:37:05;24.00;99.90
4081;DHT22;2055;50.074;8.436;2022-10-30T13:39:52;24.40;99.90
4081;DHT22;2055;50.074;8.436;2022-10-30T13:53:33;22.70;99.90
4081;DHT22;2055;50.074;8.436;2022-10-30T13:56:00;22.20;99.90
4081;DHT22;2055;50.074;8.436;2022-10-30T13:58:40;21.50;99.90
4081;DHT22;2055;50.074;8.436;2022-10-30T14:01:27;21.20;99.90
4081;DHT22;2055;50.074;8.436;2022-10-30T14:04:15;21.10;99.90
4081;DHT22;2055;50.074;8.436;2022-10-30T14:06:51;21.20;99.90
4081;DHT22;2055;50.074;8.436;2022-10-30T14:18:20;20.90;99.90
4081;DHT22;2055;50.074;8.436;2022-10-30T14:20:49;20.70;99.90
4081;DHT22;2055;50.074;8.436;2022-10-30T14:28:41;20.60;99.90
4081;DHT22;2055;50.074;8.436;2022-10-30T14:31:15;20.50;99.90
4081;DHT22;2055;50.074;8.436;2022-10-30T14:33:43;20.50;99.90
4081;DHT22;2055;50.074;8.436;2022-10-30T14:38:39;20.30;99.90
4081;DHT22;2055;50.074;8.436;2022-10-30T14:44:10;20.20;99.90
4081;DHT22;2055;50.074;8.436;2022-10-30T15:03:09;19.80;99.90
4081;DHT22;2055;50.074;8.436;2022-10-30T15:13:52;19.10;99.90
4081;DHT22;2055;50.074;8.436;2022-10-30T15:16:20;19.00;99.90
4081;DHT22;2055;50.074;8.436;2022-10-30T15:18:52;19.00;99.90
4081;DHT22;2055;50.074;8.436;2022-10-30T15:21:21;18.70;99.90
4081;DHT22;2055;50.074;8.436;2022-10-30T15:23:50;18.60;99.90
4081;DHT22;2055;50.074;8.436;2022-10-30T15:26:19;18.50;99.90
4081;DHT22;2055;50.074;8.436;2022-10-30T15:28:49;18.40;99.90
4081;DHT22;2055;50.074;8.436;2022-10-30T15:31:26;18.20;99.90
4081;DHT22;2055;50.074;8.436;2022-10-30T15:33:53;18.00;99.90
4081;DHT22;2055;50.074;8.436;2022-10-30T15:36:27;17.90;99.90
4081;DHT22;2055;50.074;8.436;2022-10-30T15:39:15;17.70;99.90
4081;DHT22;2055;50.074;8.436;2022-10-30T15:41:46;17.50;99.90
4081;DHT22;2055;50.074;8.436;2022-10-30T15:44:16;17.40;99.90
4081;DHT22;2055;50.074;8.436;2022-10-30T15:46:47;17.20;99.90
4081;DHT22;2055;50.074;8.436;2022-10-30T15:49:34;17.10;99.90
4081;DHT22;2055;50.074;8.436;2022-10-30T15:52:03;16.90;99.90
4081;DHT22;2055;50.074;8.436;2022-10-30T15:54:30;16.70;99.90
4081;DHT22;2055;50.074;8.436;2022-10-30T15:56:58;16.60;99.90
4081;DHT22;2055;50.074;8.436;2022-10-30T15:59:28;16.50;99.90
4081;DHT22;2055;50.074;8.436;2022-10-30T16:01:56;16.40;99.90
4081;DHT22;2055;50.074;8.436;2022-10-30T16:04:24;16.30;99.90
4081;DHT22;2055;50.074;8.436;2022-10-30T16:06:55;16.20;99.90
4081;DHT22;2055;50.074;8.436;2022-10-30T16:09:22;16.10;99.90
4081;DHT22;2055;50.074;8.436;2022-10-30T16:11:50;16.00;99.90
4081;DHT22;2055;50.074;8.436;2022-10-30T16:14:27;15.90;99.90
4081;DHT22;2055;50.074;8.436;2022-10-30T16:16:53;15.70;99.90
4081;DHT22;2055;50.074;8.436;2022-10-30T16:19:26;15.60;99.90
4081;DHT22;2055;50.074;8.436;2022-10-30T16:21:53;15.50;99.90
4081;DHT22;2055;50.074;8.436;2022-10-30T16:24:23;15.30;99.90
4081;DHT22;2055;50.074;8.436;2022-10-30T16:27:13;15.10;99.90
4081;DHT22;2055;50.074;8.436;2022-10-30T16:29:40;14.90;99.90
4081;DHT22;2055;50.074;8.436;2022-10-30T16:32:12;14.70;99.90
4081;DHT22;2055;50.074;8.436;2022-10-30T16:34:39;14.60;99.90
4081;DHT22;2055;50.074;8.436;2022-10-30T16:37:11;14.50;99.90
4081;DHT22;2055;50.074;8.436;2022-10-30T16:39:38;14.50;99.90
4081;DHT22;2055;50.074;8.436;2022-10-30T16:42:04;14.50;99.90
4081;DHT22;2055;50.074;8.436;2022-10-30T16:44:31;14.30;99.90
4081;DHT22;2055;50.074;8.436;2022-10-30T16:49:43;14.10;99.90
4081;DHT22;2055;50.074;8.436;2022-10-30T16:52:12;14.00;99.90
4081;DHT22;2055;50.074;8.436;2022-10-30T16:54:41;13.90;99.90
4081;DHT22;2055;50.074;8.436;2022-10-30T16:57:25;13.90;99.90
4081;DHT22;2055;50.074;8.436;2022-10-30T16:59:51;13.90;99.90
4081;DHT22;2055;50.074;8.436;2022-10-30T17:02:20;14.10;99.90
4081;DHT22;2055;50.074;8.436;2022-10-30T17:04:52;14.00;99.90
4081;DHT22;2055;50.074;8.436;2022-10-30T17:07:20;14.00;99.90
4081;DHT22;2055;50.074;8.436;2022-10-30T17:09:48;13.90;99.90
4081;DHT22;2055;50.074;8.436;2022-10-30T17:12:26;13.80;99.90
4081;DHT22;2055;50.074;8.436;2022-10-30T17:15:09;13.90;99.90
4081;DHT22;2055;50.074;8.436;2022-10-30T17:17:38;13.80;99.90
4081;DHT22;2055;50.074;8.436;2022-10-30T17:20:24;13.70;99.90
4081;DHT22;2055;50.074;8.436;2022-10-30T17:23:15;13.60;99.90
4081;DHT22;2055;50.074;8.436;2022-10-30T17:25:42;13.50;99.90
4081;DHT22;2055;50.074;8.436;2022-10-30T17:28:25;13.40;99.90
4081;DHT22;2055;50.074;8.436;2022-10-30T17:30:51;13.60;99.90
4081;DHT22;2055;50.074;8.436;2022-10-30T17:33:31;13.60;99.90
4081;DHT22;2055;50.074;8.436;2022-10-30T17:35:59;13.50;99.90
4081;DHT22;2055;50.074;8.436;2022-10-30T17:38:26;13.50;99.90
4081;DHT22;2055;50.074;8.436;2022-10-30T17:40:51;13.40;99.90
4081;DHT22;2055;50.074;8.436;2022-10-30T17:43:17;13.40;99.90
4081;DHT22;2055;50.074;8.436;2022-10-30T17:45:44;13.30;99.90
4081;DHT22;2055;50.074;8.436;2022-10-30T17:48:13;13.30;99.90
4081;DHT22;2055;50.074;8.436;2022-10-30T17:50:39;13.30;99.90
4081;DHT22;2055;50.074;8.436;2022-10-30T17:53:05;13.10;99.90
4081;DHT22;2055;50.074;8.436;2022-10-30T17:55:32;13.10;99.90
4081;DHT22;2055;50.074;8.436;2022-10-30T17:57:59;13.20;99.90
4081;DHT22;2055;50.074;8.436;2022-10-30T18:00:24;13.10;99.90
4081;DHT22;2055;50.074;8.436;2022-10-30T18:02:50;13.00;99.90
4081;DHT22;2055;50.074;8.436;2022-10-30T18:05:17;13.00;99.90
4081;DHT22;2055;50.074;8.436;2022-10-30T18:07:44;13.00;99.90
4081;DHT22;2055;50.074;8.436;2022-10-30T18:10:10;13.00;99.90
4081;DHT22;2055;50.074;8.436;2022-10-30T18:12:35;13.20;99.90
4081;DHT22;2055;50.074;8.436;2022-10-30T18:17:47;12.80;99.90
4081;DHT22;2055;50.074;8.436;2022-10-30T18:20:13;13.00;99.90
4081;DHT22;2055;50.074;8.436;2022-10-30T18:22:38;13.00;99.90
4081;DHT22;2055;50.074;8.436;2022-10-30T18:25:26;13.10;99.90
4081;DHT22;2055;50.074;8.436;2022-10-30T18:27:52;12.90;99.90
4081;DHT22;2055;50.074;8.436;2022-10-30T18:30:18;12.80;99.90
4081;DHT22;2055;50.074;8.436;2022-10-30T18:32:45;12.70;99.90
4081;DHT22;2055;50.074;8.436;2022-10-30T18:37:37;12.50;99.90
4081;DHT22;2055;50.074;8.436;2022-10-30T18:40:03;12.50;99.90
4081;DHT22;2055;50.074;8.436;2022-10-30T18:42:29;12.50;99.90
4081;DHT22;2055;50.074;8.436;2022-10-30T18:44:54;12.50;99.90
4081;DHT22;2055;50.074;8.436;2022-10-30T18:47:20;12.60;99.90